sensor_id;sensor_type;location;lat;lon;timestamp;pressure;altitude;pressure_sealevel;temperature
67599;BMP280;62026;39.230;9.122;2022-09-06T00:00:07;101353.63;;;28.51
67599;BMP280;62026;39.230;9.122;2022-09-06T00:02:38;101368.50;;;28.62
67599;BMP280;62026;39.230;9.122;2022-09-06T00:05:05;101361.41;;;28.78
67599;BMP280;62026;39.230;9.122;2022-09-06T00:07:32;101371.31;;;28.91
67599;BMP280;62026;39.230;9.122;2022-09-06T00:09:58;101373.03;;;28.96
67599;BMP280;62026;39.230;9.122;2022-09-06T00:12:24;101373.19;;;29.00
67599;BMP280;62026;39.230;9.122;2022-09-06T00:14:50;101368.25;;;28.93
67599;BMP280;62026;39.230;9.122;2022-09-06T00:17:17;101357.22;;;28.89
67599;BMP280;62026;39.230;9.122;2022-09-06T00:19:43;101374.31;;;28.99
67599;BMP280;62026;39.230;9.122;2022-09-06T00:22:09;101377.03;;;28.99
67599;BMP280;62026;39.230;9.122;2022-09-06T00:24:35;101356.56;;;28.92
67599;BMP280;62026;39.230;9.122;2022-09-06T00:27:04;101361.69;;;28.94
67599;BMP280;62026;39.230;9.122;2022-09-06T00:29:31;101368.72;;;28.86
67599;BMP280;62026;39.230;9.122;2022-09-06T00:31:57;101348.25;;;28.80
67599;BMP280;62026;39.230;9.122;2022-09-06T00:34:24;101346.22;;;28.77
67599;BMP280;62026;39.230;9.122;2022-09-06T00:36:50;101369.41;;;28.92
67599;BMP280;62026;39.230;9.122;2022-09-06T00:39:17;101364.63;;;28.89
67599;BMP280;62026;39.230;9.122;2022-09-06T00:41:43;101342.84;;;28.80
67599;BMP280;62026;39.230;9.122;2022-09-06T00:44:09;101352.41;;;28.86
67599;BMP280;62026;39.230;9.122;2022-09-06T00:46:37;101338.84;;;28.78
67599;BMP280;62026;39.230;9.122;2022-09-06T00:49:08;101344.91;;;28.83
67599;BMP280;62026;39.230;9.122;2022-09-06T00:51:35;101343.97;;;28.79
67599;BMP280;62026;39.230;9.122;2022-09-06T00:54:03;101337.09;;;28.73
67599;BMP280;62026;39.230;9.122;2022-09-06T00:56:30;101333.75;;;28.76
67599;BMP280;62026;39.230;9.122;2022-09-06T00:58:59;101323.81;;;28.80
67599;BMP280;62026;39.230;9.122;2022-09-06T01:01:25;101319.84;;;28.69
67599;BMP280;62026;39.230;9.122;2022-09-06T01:03:51;101318.09;;;28.73
67599;BMP280;62026;39.230;9.122;2022-09-06T01:22:19;101311.34;;;28.79
67599;BMP280;62026;39.230;9.122;2022-09-06T01:27:51;101316.97;;;28.74
67599;BMP280;62026;39.230;9.122;2022-09-06T01:30:23;101321.28;;;28.75
67599;BMP280;62026;39.230;9.122;2022-09-06T01:35:26;101331.97;;;28.80
67599;BMP280;62026;39.230;9.122;2022-09-06T01:37:54;101336.75;;;28.83
67599;BMP280;62026;39.230;9.122;2022-09-06T01:40:21;101331.31;;;28.83
67599;BMP280;62026;39.230;9.122;2022-09-06T01:42:48;101316.31;;;28.77
67599;BMP280;62026;39.230;9.122;2022-09-06T01:45:19;101306.72;;;28.80
67599;BMP280;62026;39.230;9.122;2022-09-06T01:48:03;101302.72;;;28.77
67599;BMP280;62026;39.230;9.122;2022-09-06T01:50:56;101296.06;;;28.66
67599;BMP280;62026;39.230;9.122;2022-09-06T01:56:29;101308.91;;;28.86
67599;BMP280;62026;39.230;9.122;2022-09-06T01:59:18;101307.34;;;28.85
67599;BMP280;62026;39.230;9.122;2022-09-06T02:07:14;101279.03;;;28.78
67599;BMP280;62026;39.230;9.122;2022-09-06T02:09:42;101274.09;;;28.80
67599;BMP280;62026;39.230;9.122;2022-09-06T02:12:11;101281.44;;;28.79
67599;BMP280;62026;39.230;9.122;2022-09-06T02:14:42;101302.72;;;28.77
67599;BMP280;62026;39.230;9.122;2022-09-06T02:17:12;101321.75;;;28.77
67599;BMP280;62026;39.230;9.122;2022-09-06T02:19:50;101338.72;;;28.74
67599;BMP280;62026;39.230;9.122;2022-09-06T02:22:21;101370.69;;;28.77
67599;BMP280;62026;39.230;9.122;2022-09-06T02:24:50;101372.28;;;28.78
67599;BMP280;62026;39.230;9.122;2022-09-06T02:27:18;101339.38;;;28.71
67599;BMP280;62026;39.230;9.122;2022-09-06T02:29:44;101353.88;;;28.84
67599;BMP280;62026;39.230;9.122;2022-09-06T02:32:16;101336.00;;;28.83
67599;BMP280;62026;39.230;9.122;2022-09-06T02:34:42;101335.03;;;28.79
67599;BMP280;62026;39.230;9.122;2022-09-06T02:37:12;101291.94;;;28.51
67599;BMP280;62026;39.230;9.122;2022-09-06T02:39:38;101265.31;;;28.11
67599;BMP280;62026;39.230;9.122;2022-09-06T02:42:05;101201.25;;;28.09
67599;BMP280;62026;39.230;9.122;2022-09-06T02:44:33;101298.16;;;28.52
67599;BMP280;62026;39.230;9.122;2022-09-06T02:46:59;101380.66;;;28.56
67599;BMP280;62026;39.230;9.122;2022-09-06T02:49:28;101315.72;;;28.63
67599;BMP280;62026;39.230;9.122;2022-09-06T02:51:54;101277.09;;;28.32
67599;BMP280;62026;39.230;9.122;2022-09-06T02:54:22;101345.16;;;28.61
67599;BMP280;62026;39.230;9.122;2022-09-06T02:56:48;101349.75;;;28.69
67599;BMP280;62026;39.230;9.122;2022-09-06T02:59:14;101319.53;;;28.71
67599;BMP280;62026;39.230;9.122;2022-09-06T03:01:40;101332.50;;;28.74
67599;BMP280;62026;39.230;9.122;2022-09-06T03:04:06;101333.00;;;28.67
67599;BMP280;62026;39.230;9.122;2022-09-06T03:06:33;101330.88;;;28.73
67599;BMP280;62026;39.230;9.122;2022-09-06T03:08:59;101354.72;;;28.76
67599;BMP280;62026;39.230;9.122;2022-09-06T03:11:26;101359.81;;;28.69
67599;BMP280;62026;39.230;9.122;2022-09-06T03:13:52;101320.34;;;28.63
67599;BMP280;62026;39.230;9.122;2022-09-06T03:16:18;101308.69;;;28.62
67599;BMP280;62026;39.230;9.122;2022-09-06T03:18:45;101319.84;;;28.69
67599;BMP280;62026;39.230;9.122;2022-09-06T03:21:11;101307.38;;;28.68
67599;BMP280;62026;39.230;9.122;2022-09-06T03:23:37;101280.84;;;28.65
67599;BMP280;62026;39.230;9.122;2022-09-06T03:26:05;101282.47;;;28.66
67599;BMP280;62026;39.230;9.122;2022-09-06T03:28:31;101271.59;;;28.66
67599;BMP280;62026;39.230;9.122;2022-09-06T03:30:58;101234.53;;;28.53
67599;BMP280;62026;39.230;9.122;2022-09-06T03:33:24;101219.84;;;28.45
67599;BMP280;62026;39.230;9.122;2022-09-06T03:35:58;101235.19;;;28.41
67599;BMP280;62026;39.230;9.122;2022-09-06T03:38:26;101234.78;;;28.22
67599;BMP280;62026;39.230;9.122;2022-09-06T03:40:53;101212.25;;;28.22
67599;BMP280;62026;39.230;9.122;2022-09-06T03:43:20;101200.09;;;28.28
67599;BMP280;62026;39.230;9.122;2022-09-06T03:45:52;101199.13;;;28.24
67599;BMP280;62026;39.230;9.122;2022-09-06T03:48:20;101180.03;;;27.94
67599;BMP280;62026;39.230;9.122;2022-09-06T03:50:48;101178.75;;;27.92
67599;BMP280;62026;39.230;9.122;2022-09-06T03:53:16;101153.06;;;27.29
67599;BMP280;62026;39.230;9.122;2022-09-06T03:55:52;101133.75;;;27.48
67599;BMP280;62026;39.230;9.122;2022-09-06T03:58:21;101118.59;;;27.47
67599;BMP280;62026;39.230;9.122;2022-09-06T04:00:47;101180.53;;;27.53
67599;BMP280;62026;39.230;9.122;2022-09-06T04:03:13;101214.66;;;27.80
67599;BMP280;62026;39.230;9.122;2022-09-06T04:05:39;101245.84;;;27.91
67599;BMP280;62026;39.230;9.122;2022-09-06T04:08:09;101255.53;;;27.92
67599;BMP280;62026;39.230;9.122;2022-09-06T04:10:35;101243.44;;;28.07
67599;BMP280;62026;39.230;9.122;2022-09-06T04:13:01;101258.09;;;28.15
67599;BMP280;62026;39.230;9.122;2022-09-06T04:15:27;101268.81;;;28.02
67599;BMP280;62026;39.230;9.122;2022-09-06T04:17:53;101263.56;;;28.06
67599;BMP280;62026;39.230;9.122;2022-09-06T04:20:19;101276.94;;;28.11
67599;BMP280;62026;39.230;9.122;2022-09-06T04:22:45;101299.94;;;28.31
67599;BMP280;62026;39.230;9.122;2022-09-06T04:25:11;101297.88;;;28.28
67599;BMP280;62026;39.230;9.122;2022-09-06T04:27:38;101291.16;;;28.34
67599;BMP280;62026;39.230;9.122;2022-09-06T04:30:04;101292.13;;;28.38
67599;BMP280;62026;39.230;9.122;2022-09-06T04:32:30;101292.47;;;28.28
67599;BMP280;62026;39.230;9.122;2022-09-06T04:34:57;101283.63;;;28.39
67599;BMP280;62026;39.230;9.122;2022-09-06T04:37:23;101289.88;;;28.31
67599;BMP280;62026;39.230;9.122;2022-09-06T04:39:49;101286.97;;;28.45
67599;BMP280;62026;39.230;9.122;2022-09-06T04:42:15;101291.78;;;28.39
67599;BMP280;62026;39.230;9.122;2022-09-06T04:44:41;101252.50;;;28.20
67599;BMP280;62026;39.230;9.122;2022-09-06T04:47:12;101247.88;;;28.12
67599;BMP280;62026;39.230;9.122;2022-09-06T04:49:42;101216.25;;;27.81
67599;BMP280;62026;39.230;9.122;2022-09-06T04:52:09;101217.66;;;28.04
67599;BMP280;62026;39.230;9.122;2022-09-06T04:54:36;101215.97;;;27.91
67599;BMP280;62026;39.230;9.122;2022-09-06T04:57:02;101199.47;;;27.96
67599;BMP280;62026;39.230;9.122;2022-09-06T04:59:28;101194.38;;;28.03
67599;BMP280;62026;39.230;9.122;2022-09-06T05:01:55;101201.38;;;28.04
67599;BMP280;62026;39.230;9.122;2022-09-06T05:04:20;101217.34;;;28.32
67599;BMP280;62026;39.230;9.122;2022-09-06T05:06:47;101181.25;;;28.23
67599;BMP280;62026;39.230;9.122;2022-09-06T05:09:13;101147.16;;;27.61
67599;BMP280;62026;39.230;9.122;2022-09-06T05:11:39;101124.81;;;27.73
67599;BMP280;62026;39.230;9.122;2022-09-06T05:14:05;101105.97;;;27.34
67599;BMP280;62026;39.230;9.122;2022-09-06T05:16:31;101122.91;;;27.48
67599;BMP280;62026;39.230;9.122;2022-09-06T05:18:57;101138.69;;;27.63
67599;BMP280;62026;39.230;9.122;2022-09-06T05:21:23;101150.78;;;27.74
67599;BMP280;62026;39.230;9.122;2022-09-06T05:23:49;101161.97;;;27.98
67599;BMP280;62026;39.230;9.122;2022-09-06T05:26:15;101170.72;;;27.95
67599;BMP280;62026;39.230;9.122;2022-09-06T05:28:41;101156.38;;;27.86
67599;BMP280;62026;39.230;9.122;2022-09-06T05:31:12;101157.19;;;27.78
67599;BMP280;62026;39.230;9.122;2022-09-06T05:33:48;101172.38;;;27.53
67599;BMP280;62026;39.230;9.122;2022-09-06T05:36:14;101178.28;;;27.90
67599;BMP280;62026;39.230;9.122;2022-09-06T05:38:40;101168.34;;;27.94
67599;BMP280;62026;39.230;9.122;2022-09-06T05:41:05;101166.91;;;27.96
67599;BMP280;62026;39.230;9.122;2022-09-06T05:43:31;101174.59;;;27.94
67599;BMP280;62026;39.230;9.122;2022-09-06T05:45:58;101188.78;;;28.08
67599;BMP280;62026;39.230;9.122;2022-09-06T05:48:23;101182.41;;;28.13
67599;BMP280;62026;39.230;9.122;2022-09-06T05:53:33;101200.72;;;28.25
67599;BMP280;62026;39.230;9.122;2022-09-06T05:55:59;101203.00;;;28.23
67599;BMP280;62026;39.230;9.122;2022-09-06T05:58:25;101192.16;;;28.05
67599;BMP280;62026;39.230;9.122;2022-09-06T06:00:51;101175.66;;;28.19
67599;BMP280;62026;39.230;9.122;2022-09-06T06:03:18;101164.66;;;28.16
67599;BMP280;62026;39.230;9.122;2022-09-06T06:05:47;101166.72;;;28.19
67599;BMP280;62026;39.230;9.122;2022-09-06T06:08:13;101176.28;;;28.25
67599;BMP280;62026;39.230;9.122;2022-09-06T06:10:39;101174.53;;;28.20
67599;BMP280;62026;39.230;9.122;2022-09-06T06:13:05;101167.22;;;28.03
67599;BMP280;62026;39.230;9.122;2022-09-06T06:15:31;101198.66;;;28.04
67599;BMP280;62026;39.230;9.122;2022-09-06T06:17:57;101192.31;;;28.00
67599;BMP280;62026;39.230;9.122;2022-09-06T06:20:23;101189.75;;;27.95
67599;BMP280;62026;39.230;9.122;2022-09-06T06:22:49;101165.81;;;27.89
67599;BMP280;62026;39.230;9.122;2022-09-06T06:25:15;101197.91;;;28.13
67599;BMP280;62026;39.230;9.122;2022-09-06T06:27:41;101199.50;;;28.14
67599;BMP280;62026;39.230;9.122;2022-09-06T06:30:07;101189.25;;;28.11
67599;BMP280;62026;39.230;9.122;2022-09-06T06:32:33;101212.50;;;28.46
67599;BMP280;62026;39.230;9.122;2022-09-06T06:34:59;101210.19;;;28.57
67599;BMP280;62026;39.230;9.122;2022-09-06T06:37:25;101217.97;;;28.75
67599;BMP280;62026;39.230;9.122;2022-09-06T06:39:51;101217.31;;;28.78
67599;BMP280;62026;39.230;9.122;2022-09-06T06:42:17;101211.25;;;28.35
67599;BMP280;62026;39.230;9.122;2022-09-06T06:44:50;101223.00;;;28.56
67599;BMP280;62026;39.230;9.122;2022-09-06T06:47:21;101231.47;;;28.55
67599;BMP280;62026;39.230;9.122;2022-09-06T06:49:47;101264.41;;;28.62
67599;BMP280;62026;39.230;9.122;2022-09-06T06:52:13;101262.06;;;28.81
67599;BMP280;62026;39.230;9.122;2022-09-06T06:54:39;101277.34;;;29.03
67599;BMP280;62026;39.230;9.122;2022-09-06T06:57:06;101262.00;;;29.07
67599;BMP280;62026;39.230;9.122;2022-09-06T06:59:34;101236.25;;;28.58
67599;BMP280;62026;39.230;9.122;2022-09-06T07:02:00;101223.38;;;28.84
67599;BMP280;62026;39.230;9.122;2022-09-06T07:04:26;101226.13;;;28.75
67599;BMP280;62026;39.230;9.122;2022-09-06T07:06:54;101232.47;;;28.59
67599;BMP280;62026;39.230;9.122;2022-09-06T07:09:20;101231.06;;;28.82
67599;BMP280;62026;39.230;9.122;2022-09-06T07:11:47;101251.34;;;28.84
67599;BMP280;62026;39.230;9.122;2022-09-06T07:14:15;101274.88;;;28.89
67599;BMP280;62026;39.230;9.122;2022-09-06T07:16:42;101259.34;;;28.89
67599;BMP280;62026;39.230;9.122;2022-09-06T07:19:08;101259.19;;;28.86
67599;BMP280;62026;39.230;9.122;2022-09-06T07:21:35;101262.06;;;28.89
67599;BMP280;62026;39.230;9.122;2022-09-06T07:24:01;101264.41;;;29.00
67599;BMP280;62026;39.230;9.122;2022-09-06T07:26:28;101284.06;;;29.05
67599;BMP280;62026;39.230;9.122;2022-09-06T07:28:56;101294.16;;;29.05
67599;BMP280;62026;39.230;9.122;2022-09-06T07:31:23;101290.81;;;28.99
67599;BMP280;62026;39.230;9.122;2022-09-06T07:33:50;101305.97;;;29.09
67599;BMP280;62026;39.230;9.122;2022-09-06T07:36:16;101305.31;;;29.12
67599;BMP280;62026;39.230;9.122;2022-09-06T07:38:42;101289.00;;;29.12
67599;BMP280;62026;39.230;9.122;2022-09-06T07:41:12;101267.88;;;29.09
67599;BMP280;62026;39.230;9.122;2022-09-06T07:43:38;101244.13;;;28.88
67599;BMP280;62026;39.230;9.122;2022-09-06T07:46:22;101228.00;;;28.83
67599;BMP280;62026;39.230;9.122;2022-09-06T07:48:48;101250.56;;;28.84
67599;BMP280;62026;39.230;9.122;2022-09-06T07:51:16;101232.88;;;28.69
67599;BMP280;62026;39.230;9.122;2022-09-06T07:53:45;101240.56;;;28.67
67599;BMP280;62026;39.230;9.122;2022-09-06T07:56:13;101260.00;;;28.78
67599;BMP280;62026;39.230;9.122;2022-09-06T07:58:40;101262.91;;;28.81
67599;BMP280;62026;39.230;9.122;2022-09-06T08:01:28;101299.31;;;28.98
67599;BMP280;62026;39.230;9.122;2022-09-06T08:04:03;101312.69;;;29.03
67599;BMP280;62026;39.230;9.122;2022-09-06T08:06:31;101348.53;;;29.05
67599;BMP280;62026;39.230;9.122;2022-09-06T08:08:58;101360.72;;;28.99
67599;BMP280;62026;39.230;9.122;2022-09-06T08:11:26;101367.41;;;29.10
67599;BMP280;62026;39.230;9.122;2022-09-06T08:13:54;101364.09;;;29.42
67599;BMP280;62026;39.230;9.122;2022-09-06T08:16:21;101359.59;;;29.37
67599;BMP280;62026;39.230;9.122;2022-09-06T08:18:54;101364.38;;;29.40
67599;BMP280;62026;39.230;9.122;2022-09-06T08:21:22;101359.53;;;29.17
67599;BMP280;62026;39.230;9.122;2022-09-06T08:23:53;101374.72;;;29.18
67599;BMP280;62026;39.230;9.122;2022-09-06T08:26:21;101382.63;;;29.02
67599;BMP280;62026;39.230;9.122;2022-09-06T08:28:53;101386.75;;;29.08
67599;BMP280;62026;39.230;9.122;2022-09-06T08:31:19;101388.53;;;29.04
67599;BMP280;62026;39.230;9.122;2022-09-06T08:33:45;101369.03;;;28.93
67599;BMP280;62026;39.230;9.122;2022-09-06T08:36:13;101382.81;;;28.88
67599;BMP280;62026;39.230;9.122;2022-09-06T08:38:39;101371.13;;;28.88
67599;BMP280;62026;39.230;9.122;2022-09-06T08:41:11;101355.91;;;28.95
67599;BMP280;62026;39.230;9.122;2022-09-06T08:46:22;101370.63;;;29.12
67599;BMP280;62026;39.230;9.122;2022-09-06T08:48:51;101351.09;;;29.10
67599;BMP280;62026;39.230;9.122;2022-09-06T08:54:17;101354.91;;;29.09
67599;BMP280;62026;39.230;9.122;2022-09-06T08:57:06;101359.16;;;28.80
67599;BMP280;62026;39.230;9.122;2022-09-06T08:59:38;101358.22;;;28.76
67599;BMP280;62026;39.230;9.122;2022-09-06T09:02:20;101369.81;;;29.03
67599;BMP280;62026;39.230;9.122;2022-09-06T09:04:53;101383.41;;;29.03
67599;BMP280;62026;39.230;9.122;2022-09-06T09:07:42;101356.78;;;28.79
67599;BMP280;62026;39.230;9.122;2022-09-06T09:10:13;101347.75;;;28.95
67599;BMP280;62026;39.230;9.122;2022-09-06T09:12:45;101360.72;;;28.99
67599;BMP280;62026;39.230;9.122;2022-09-06T09:15:14;101334.84;;;28.84
67599;BMP280;62026;39.230;9.122;2022-09-06T09:17:42;101307.19;;;28.73
67599;BMP280;62026;39.230;9.122;2022-09-06T09:20:08;101302.59;;;28.74
67599;BMP280;62026;39.230;9.122;2022-09-06T09:22:36;101376.75;;;28.91
67599;BMP280;62026;39.230;9.122;2022-09-06T09:25:04;101438.47;;;29.00
67599;BMP280;62026;39.230;9.122;2022-09-06T09:27:32;101449.97;;;29.14
67599;BMP280;62026;39.230;9.122;2022-09-06T09:30:01;101401.63;;;29.11
67599;BMP280;62026;39.230;9.122;2022-09-06T09:32:34;101432.13;;;29.25
67599;BMP280;62026;39.230;9.122;2022-09-06T09:38:41;101415.06;;;29.16
67599;BMP280;62026;39.230;9.122;2022-09-06T09:40:54;101416.66;;;29.17
67599;BMP280;62026;39.230;9.122;2022-09-06T09:43:25;101403.41;;;29.15
67599;BMP280;62026;39.230;9.122;2022-09-06T09:49:12;101403.81;;;29.26
67599;BMP280;62026;39.230;9.122;2022-09-06T09:52:03;101406.34;;;29.31
67599;BMP280;62026;39.230;9.122;2022-09-06T09:54:32;101399.69;;;29.20
67599;BMP280;62026;39.230;9.122;2022-09-06T09:56:59;101422.47;;;29.07
67599;BMP280;62026;39.230;9.122;2022-09-06T10:01:55;101425.03;;;29.12
67599;BMP280;62026;39.230;9.122;2022-09-06T10:04:34;101405.97;;;29.03
67599;BMP280;62026;39.230;9.122;2022-09-06T10:07:13;101425.22;;;28.98
67599;BMP280;62026;39.230;9.122;2022-09-06T10:09:43;101427.41;;;29.13
67599;BMP280;62026;39.230;9.122;2022-09-06T10:12:27;101431.41;;;29.16
67599;BMP280;62026;39.230;9.122;2022-09-06T10:14:54;101433.28;;;29.24
67599;BMP280;62026;39.230;9.122;2022-09-06T10:17:28;101434.25;;;29.19
67599;BMP280;62026;39.230;9.122;2022-09-06T10:19:55;101449.78;;;29.27
67599;BMP280;62026;39.230;9.122;2022-09-06T10:22:55;101443.41;;;29.15
67599;BMP280;62026;39.230;9.122;2022-09-06T10:25:37;101433.03;;;29.00
67599;BMP280;62026;39.230;9.122;2022-09-06T10:28:29;101446.63;;;29.00
67599;BMP280;62026;39.230;9.122;2022-09-06T10:36:02;101448.16;;;29.26
67599;BMP280;62026;39.230;9.122;2022-09-06T10:41:30;101436.25;;;29.39
67599;BMP280;62026;39.230;9.122;2022-09-06T10:44:22;101418.50;;;29.42
67599;BMP280;62026;39.230;9.122;2022-09-06T10:46:47;101409.50;;;29.50
67599;BMP280;62026;39.230;9.122;2022-09-06T10:49:18;101408.16;;;29.56
67599;BMP280;62026;39.230;9.122;2022-09-06T10:51:48;101383.84;;;29.51
67599;BMP280;62026;39.230;9.122;2022-09-06T10:54:20;101358.69;;;29.54
67599;BMP280;62026;39.230;9.122;2022-09-06T11:04:35;101285.88;;;29.51
67599;BMP280;62026;39.230;9.122;2022-09-06T11:07:27;101261.56;;;29.46
67599;BMP280;62026;39.230;9.122;2022-09-06T11:12:57;101225.47;;;29.58
67599;BMP280;62026;39.230;9.122;2022-09-06T11:15:27;101250.28;;;29.56
67599;BMP280;62026;39.230;9.122;2022-09-06T11:29:50;101230.50;;;29.47
67599;BMP280;62026;39.230;9.122;2022-09-06T11:32:35;101225.56;;;29.40
67599;BMP280;62026;39.230;9.122;2022-09-06T11:35:07;101212.19;;;29.35
67599;BMP280;62026;39.230;9.122;2022-09-06T11:37:42;101199.09;;;29.29
67599;BMP280;62026;39.230;9.122;2022-09-06T11:47:44;101204.84;;;29.36
67599;BMP280;62026;39.230;9.122;2022-09-06T12:06:18;101151.38;;;29.52
67599;BMP280;62026;39.230;9.122;2022-09-06T12:08:46;101144.81;;;29.53
67599;BMP280;62026;39.230;9.122;2022-09-06T12:24:59;101167.41;;;29.66
67599;BMP280;62026;39.230;9.122;2022-09-06T12:27:28;101146.72;;;29.53
67599;BMP280;62026;39.230;9.122;2022-09-06T12:30:05;101157.09;;;29.59
67599;BMP280;62026;39.230;9.122;2022-09-06T12:32:35;101123.97;;;29.69
67599;BMP280;62026;39.230;9.122;2022-09-06T12:35:12;101140.06;;;29.62
67599;BMP280;62026;39.230;9.122;2022-09-06T12:37:52;101138.75;;;29.80
67599;BMP280;62026;39.230;9.122;2022-09-06T12:40:19;101141.75;;;29.88
67599;BMP280;62026;39.230;9.122;2022-09-06T12:42:47;101140.47;;;29.73
67599;BMP280;62026;39.230;9.122;2022-09-06T12:45:14;101156.56;;;29.78
67599;BMP280;62026;39.230;9.122;2022-09-06T12:47:40;101167.44;;;29.78
67599;BMP280;62026;39.230;9.122;2022-09-06T12:50:16;101152.38;;;29.80
67599;BMP280;62026;39.230;9.122;2022-09-06T12:52:54;101163.09;;;29.98
67599;BMP280;62026;39.230;9.122;2022-09-06T12:55:31;101163.47;;;30.33
67599;BMP280;62026;39.230;9.122;2022-09-06T12:58:01;101167.34;;;30.44
67599;BMP280;62026;39.230;9.122;2022-09-06T13:05:30;101173.38;;;30.49
67599;BMP280;62026;39.230;9.122;2022-09-06T13:07:59;101170.88;;;30.44
67599;BMP280;62026;39.230;9.122;2022-09-06T13:10:27;101158.13;;;30.24
67599;BMP280;62026;39.230;9.122;2022-09-06T13:12:56;101163.91;;;30.10
67599;BMP280;62026;39.230;9.122;2022-09-06T13:15:24;101171.72;;;30.00
67599;BMP280;62026;39.230;9.122;2022-09-06T13:17:52;101176.38;;;29.99
67599;BMP280;62026;39.230;9.122;2022-09-06T13:20:27;101166.97;;;29.97
67599;BMP280;62026;39.230;9.122;2022-09-06T13:23:08;101161.03;;;29.82
67599;BMP280;62026;39.230;9.122;2022-09-06T13:25:49;101156.06;;;29.97
67599;BMP280;62026;39.230;9.122;2022-09-06T13:28:29;101133.00;;;29.82
67599;BMP280;62026;39.230;9.122;2022-09-06T13:31:08;101148.28;;;29.87
67599;BMP280;62026;39.230;9.122;2022-09-06T13:33:36;101147.41;;;29.82
67599;BMP280;62026;39.230;9.122;2022-09-06T13:36:17;101140.00;;;29.83
67599;BMP280;62026;39.230;9.122;2022-09-06T13:38:45;101125.81;;;29.77
67599;BMP280;62026;39.230;9.122;2022-09-06T13:46:35;101120.63;;;29.84
67599;BMP280;62026;39.230;9.122;2022-09-06T13:49:02;101116.00;;;29.52
67599;BMP280;62026;39.230;9.122;2022-09-06T13:51:28;101126.66;;;29.57
67599;BMP280;62026;39.230;9.122;2022-09-06T13:54:05;101111.47;;;29.56
67599;BMP280;62026;39.230;9.122;2022-09-06T13:56:32;101117.72;;;29.57
67599;BMP280;62026;39.230;9.122;2022-09-06T13:58:59;101130.03;;;29.42
67599;BMP280;62026;39.230;9.122;2022-09-06T14:01:25;101119.38;;;29.49
67599;BMP280;62026;39.230;9.122;2022-09-06T14:03:51;101114.38;;;29.18
67599;BMP280;62026;39.230;9.122;2022-09-06T14:06:17;101142.75;;;29.50
67599;BMP280;62026;39.230;9.122;2022-09-06T14:08:43;101140.34;;;29.49
67599;BMP280;62026;39.230;9.122;2022-09-06T14:11:09;101142.75;;;29.50
67599;BMP280;62026;39.230;9.122;2022-09-06T14:13:35;101139.81;;;29.55
67599;BMP280;62026;39.230;9.122;2022-09-06T14:16:01;101146.47;;;29.25
67599;BMP280;62026;39.230;9.122;2022-09-06T14:18:30;101143.41;;;29.26
67599;BMP280;62026;39.230;9.122;2022-09-06T14:20:56;101136.22;;;29.30
67599;BMP280;62026;39.230;9.122;2022-09-06T14:23:25;101145.94;;;29.52
67599;BMP280;62026;39.230;9.122;2022-09-06T14:25:55;101137.94;;;29.35
67599;BMP280;62026;39.230;9.122;2022-09-06T14:28:21;101132.22;;;29.28
67599;BMP280;62026;39.230;9.122;2022-09-06T14:30:48;101133.47;;;29.10
67599;BMP280;62026;39.230;9.122;2022-09-06T14:33:14;101117.03;;;29.06
67599;BMP280;62026;39.230;9.122;2022-09-06T14:35:40;101115.16;;;29.19
67599;BMP280;62026;39.230;9.122;2022-09-06T14:38:06;101111.16;;;29.16
67599;BMP280;62026;39.230;9.122;2022-09-06T14:40:36;101116.50;;;29.13
67599;BMP280;62026;39.230;9.122;2022-09-06T14:43:03;101117.16;;;29.10
67599;BMP280;62026;39.230;9.122;2022-09-06T14:45:29;101103.63;;;29.01
67599;BMP280;62026;39.230;9.122;2022-09-06T14:47:57;101125.53;;;29.05
67599;BMP280;62026;39.230;9.122;2022-09-06T14:50:23;101127.31;;;29.21
67599;BMP280;62026;39.230;9.122;2022-09-06T14:52:49;101110.06;;;29.17
67599;BMP280;62026;39.230;9.122;2022-09-06T14:55:15;101095.00;;;28.99
67599;BMP280;62026;39.230;9.122;2022-09-06T14:57:41;101123.13;;;29.24
67599;BMP280;62026;39.230;9.122;2022-09-06T15:00:08;101114.50;;;29.22
67599;BMP280;62026;39.230;9.122;2022-09-06T15:02:36;101119.53;;;28.90
67599;BMP280;62026;39.230;9.122;2022-09-06T15:05:02;101132.91;;;28.95
67599;BMP280;62026;39.230;9.122;2022-09-06T15:07:29;101118.59;;;29.07
67599;BMP280;62026;39.230;9.122;2022-09-06T15:09:56;101115.28;;;29.02
67599;BMP280;62026;39.230;9.122;2022-09-06T15:12:23;101128.03;;;29.10
67599;BMP280;62026;39.230;9.122;2022-09-06T15:14:49;101121.28;;;29.16
67599;BMP280;62026;39.230;9.122;2022-09-06T15:17:15;101128.28;;;29.17
67599;BMP280;62026;39.230;9.122;2022-09-06T15:19:41;101129.88;;;29.18
67599;BMP280;62026;39.230;9.122;2022-09-06T15:22:07;101117.84;;;29.27
67599;BMP280;62026;39.230;9.122;2022-09-06T15:24:33;101102.94;;;29.25
67599;BMP280;62026;39.230;9.122;2022-09-06T15:26:59;101107.03;;;29.31
67599;BMP280;62026;39.230;9.122;2022-09-06T15:29:25;101104.53;;;29.26
67599;BMP280;62026;39.230;9.122;2022-09-06T15:31:52;101094.97;;;29.40
67599;BMP280;62026;39.230;9.122;2022-09-06T15:34:20;101091.81;;;29.18
67599;BMP280;62026;39.230;9.122;2022-09-06T15:36:47;101088.19;;;29.26
67599;BMP280;62026;39.230;9.122;2022-09-06T15:39:13;101086.38;;;29.18
67599;BMP280;62026;39.230;9.122;2022-09-06T15:41:39;101087.56;;;29.08
67599;BMP280;62026;39.230;9.122;2022-09-06T15:44:11;101079.56;;;29.12
67599;BMP280;62026;39.230;9.122;2022-09-06T15:49:29;101071.53;;;28.94
67599;BMP280;62026;39.230;9.122;2022-09-06T15:51:58;101074.03;;;29.00
67599;BMP280;62026;39.230;9.122;2022-09-06T15:54:25;101086.53;;;29.01
67599;BMP280;62026;39.230;9.122;2022-09-06T15:57:11;101090.88;;;29.14
67599;BMP280;62026;39.230;9.122;2022-09-06T15:59:38;101073.38;;;29.03
67599;BMP280;62026;39.230;9.122;2022-09-06T16:02:04;101073.00;;;29.13
67599;BMP280;62026;39.230;9.122;2022-09-06T16:04:30;101080.09;;;29.05
67599;BMP280;62026;39.230;9.122;2022-09-06T16:06:56;101091.34;;;29.16
67599;BMP280;62026;39.230;9.122;2022-09-06T16:09:22;101095.66;;;29.17
67599;BMP280;62026;39.230;9.122;2022-09-06T16:11:48;101098.38;;;29.17
67599;BMP280;62026;39.230;9.122;2022-09-06T16:14:15;101089.41;;;28.95